sensor_id;sensor_type;location;lat;lon;timestamp;P1;durP1;ratioP1;P2;durP2;ratioP2
80334;SDS011;69653;52.674;13.574;2023-06-19T00:00:36;13.63;;;10.05;;
80334;SDS011;69653;52.674;13.574;2023-06-19T00:03:02;10.98;;;9.15;;
80334;SDS011;69653;52.674;13.574;2023-06-19T00:05:28;13.75;;;9.73;;
80334;SDS011;69653;52.674;13.574;2023-06-19T00:07:53;13.83;;;9.70;;
80334;SDS011;69653;52.674;13.574;2023-06-19T00:10:18;12.00;;;8.90;;
80334;SDS011;69653;52.674;13.574;2023-06-19T00:12:44;12.48;;;9.25;;
80334;SDS011;69653;52.674;13.574;2023-06-19T00:15:10;11.18;;;8.88;;
80334;SDS011;69653;52.674;13.574;2023-06-19T00:17:35;10.55;;;8.52;;
80334;SDS011;69653;52.674;13.574;2023-06-19T00:20:04;13.63;;;9.82;;
80334;SDS011;69653;52.674;13.574;2023-06-19T00:22:31;12.88;;;9.13;;
80334;SDS011;69653;52.674;13.574;2023-06-19T00:24:57;11.55;;;8.40;;
80334;SDS011;69653;52.674;13.574;2023-06-19T00:27:22;12.05;;;8.70;;
80334;SDS011;69653;52.674;13.574;2023-06-19T00:29:49;12.68;;;9.07;;
80334;SDS011;69653;52.674;13.574;2023-06-19T00:32:15;13.82;;;9.10;;
80334;SDS011;69653;52.674;13.574;2023-06-19T00:34:40;13.63;;;9.47;;
80334;SDS011;69653;52.674;13.574;2023-06-19T00:37:08;11.48;;;9.15;;
80334;SDS011;69653;52.674;13.574;2023-06-19T00:39:33;13.30;;;9.43;;
80334;SDS011;69653;52.674;13.574;2023-06-19T00:41:59;12.97;;;9.77;;
80334;SDS011;69653;52.674;13.574;2023-06-19T00:44:24;11.73;;;9.53;;
80334;SDS011;69653;52.674;13.574;2023-06-19T00:47:00;14.30;;;9.30;;
80334;SDS011;69653;52.674;13.574;2023-06-19T00:49:27;12.38;;;9.55;;
80334;SDS011;69653;52.674;13.574;2023-06-19T00:51:54;12.80;;;10.27;;
80334;SDS011;69653;52.674;13.574;2023-06-19T00:54:20;11.77;;;9.00;;
80334;SDS011;69653;52.674;13.574;2023-06-19T00:56:46;13.90;;;9.30;;
80334;SDS011;69653;52.674;13.574;2023-06-19T00:59:15;13.02;;;9.43;;
80334;SDS011;69653;52.674;13.574;2023-06-19T01:01:42;13.35;;;10.13;;
80334;SDS011;69653;52.674;13.574;2023-06-19T01:04:08;14.15;;;9.50;;
80334;SDS011;69653;52.674;13.574;2023-06-19T01:06:37;13.87;;;9.77;;
80334;SDS011;69653;52.674;13.574;2023-06-19T01:09:10;14.27;;;9.82;;
80334;SDS011;69653;52.674;13.574;2023-06-19T01:11:41;13.00;;;9.45;;
80334;SDS011;69653;52.674;13.574;2023-06-19T01:14:15;12.98;;;9.57;;
80334;SDS011;69653;52.674;13.574;2023-06-19T01:16:44;13.65;;;9.93;;
80334;SDS011;69653;52.674;13.574;2023-06-19T01:19:12;13.45;;;9.48;;
80334;SDS011;69653;52.674;13.574;2023-06-19T01:21:42;13.60;;;9.43;;
80334;SDS011;69653;52.674;13.574;2023-06-19T01:24:08;14.25;;;11.02;;
80334;SDS011;69653;52.674;13.574;2023-06-19T01:26:33;13.73;;;9.80;;
80334;SDS011;69653;52.674;13.574;2023-06-19T01:28:58;15.60;;;10.93;;
80334;SDS011;69653;52.674;13.574;2023-06-19T01:31:25;13.55;;;10.10;;
80334;SDS011;69653;52.674;13.574;2023-06-19T01:33:56;13.07;;;9.88;;
80334;SDS011;69653;52.674;13.574;2023-06-19T01:36:23;11.80;;;9.13;;
80334;SDS011;69653;52.674;13.574;2023-06-19T01:38:49;12.77;;;9.93;;
80334;SDS011;69653;52.674;13.574;2023-06-19T01:41:16;12.30;;;9.52;;
80334;SDS011;69653;52.674;13.574;2023-06-19T01:43:43;12.48;;;9.05;;
80334;SDS011;69653;52.674;13.574;2023-06-19T01:46:10;12.93;;;9.95;;
80334;SDS011;69653;52.674;13.574;2023-06-19T01:48:37;12.80;;;9.10;;
80334;SDS011;69653;52.674;13.574;2023-06-19T01:51:03;11.50;;;9.15;;
80334;SDS011;69653;52.674;13.574;2023-06-19T01:53:32;13.38;;;9.07;;
80334;SDS011;69653;52.674;13.574;2023-06-19T01:56:00;11.80;;;9.25;;
80334;SDS011;69653;52.674;13.574;2023-06-19T01:58:26;11.52;;;9.13;;
80334;SDS011;69653;52.674;13.574;2023-06-19T02:00:51;14.60;;;9.05;;
80334;SDS011;69653;52.674;13.574;2023-06-19T02:03:17;12.20;;;9.53;;
80334;SDS011;69653;52.674;13.574;2023-06-19T02:05:42;12.18;;;9.13;;
80334;SDS011;69653;52.674;13.574;2023-06-19T02:08:08;12.40;;;10.07;;
80334;SDS011;69653;52.674;13.574;2023-06-19T02:10:33;14.30;;;9.63;;
80334;SDS011;69653;52.674;13.574;2023-06-19T02:12:59;13.77;;;10.07;;
80334;SDS011;69653;52.674;13.574;2023-06-19T02:15:24;11.60;;;9.15;;
80334;SDS011;69653;52.674;13.574;2023-06-19T02:17:50;12.97;;;10.07;;
80334;SDS011;69653;52.674;13.574;2023-06-19T02:20:20;13.95;;;9.18;;
80334;SDS011;69653;52.674;13.574;2023-06-19T02:22:49;13.23;;;10.27;;
80334;SDS011;69653;52.674;13.574;2023-06-19T02:25:16;12.98;;;9.43;;
80334;SDS011;69653;52.674;13.574;2023-06-19T02:27:41;12.48;;;9.95;;
80334;SDS011;69653;52.674;13.574;2023-06-19T02:30:06;12.83;;;9.87;;
80334;SDS011;69653;52.674;13.574;2023-06-19T02:32:32;14.55;;;11.18;;
80334;SDS011;69653;52.674;13.574;2023-06-19T02:34:57;13.57;;;9.93;;
80334;SDS011;69653;52.674;13.574;2023-06-19T02:37:23;13.48;;;10.13;;
80334;SDS011;69653;52.674;13.574;2023-06-19T02:39:48;15.30;;;10.47;;
80334;SDS011;69653;52.674;13.574;2023-06-19T02:42:13;12.98;;;10.23;;
80334;SDS011;69653;52.674;13.574;2023-06-19T02:44:39;13.52;;;10.15;;
80334;SDS011;69653;52.674;13.574;2023-06-19T02:47:05;13.02;;;10.10;;
80334;SDS011;69653;52.674;13.574;2023-06-19T02:49:31;13.43;;;10.25;;
80334;SDS011;69653;52.674;13.574;2023-06-19T02:51:56;14.18;;;9.95;;
80334;SDS011;69653;52.674;13.574;2023-06-19T02:54:21;14.97;;;10.37;;
80334;SDS011;69653;52.674;13.574;2023-06-19T02:56:47;13.83;;;10.03;;
80334;SDS011;69653;52.674;13.574;2023-06-19T02:59:13;22.63;;;10.68;;
80334;SDS011;69653;52.674;13.574;2023-06-19T03:01:38;15.15;;;10.00;;
80334;SDS011;69653;52.674;13.574;2023-06-19T03:04:04;14.40;;;11.17;;
80334;SDS011;69653;52.674;13.574;2023-06-19T03:06:29;15.05;;;10.60;;
80334;SDS011;69653;52.674;13.574;2023-06-19T03:08:55;14.65;;;11.52;;
80334;SDS011;69653;52.674;13.574;2023-06-19T03:11:21;14.18;;;11.10;;
80334;SDS011;69653;52.674;13.574;2023-06-19T03:13:47;16.83;;;11.18;;
80334;SDS011;69653;52.674;13.574;2023-06-19T03:16:13;13.20;;;10.68;;
80334;SDS011;69653;52.674;13.574;2023-06-19T03:18:39;14.00;;;10.63;;
80334;SDS011;69653;52.674;13.574;2023-06-19T03:21:05;14.85;;;11.13;;
80334;SDS011;69653;52.674;13.574;2023-06-19T03:23:30;14.23;;;11.10;;
80334;SDS011;69653;52.674;13.574;2023-06-19T03:25:56;16.03;;;10.97;;
80334;SDS011;69653;52.674;13.574;2023-06-19T03:28:22;14.18;;;10.60;;
80334;SDS011;69653;52.674;13.574;2023-06-19T03:30:48;15.05;;;11.55;;
80334;SDS011;69653;52.674;13.574;2023-06-19T03:33:13;16.25;;;12.00;;
80334;SDS011;69653;52.674;13.574;2023-06-19T03:35:39;16.48;;;11.95;;
80334;SDS011;69653;52.674;13.574;2023-06-19T03:38:05;14.23;;;10.82;;
80334;SDS011;69653;52.674;13.574;2023-06-19T03:40:31;13.98;;;10.85;;
80334;SDS011;69653;52.674;13.574;2023-06-19T03:42:56;14.60;;;11.00;;
80334;SDS011;69653;52.674;13.574;2023-06-19T03:45:21;15.07;;;10.87;;
80334;SDS011;69653;52.674;13.574;2023-06-19T03:47:47;14.90;;;11.77;;
80334;SDS011;69653;52.674;13.574;2023-06-19T03:50:12;14.67;;;11.13;;
80334;SDS011;69653;52.674;13.574;2023-06-19T03:52:37;15.48;;;11.27;;
80334;SDS011;69653;52.674;13.574;2023-06-19T03:55:03;14.20;;;12.17;;
80334;SDS011;69653;52.674;13.574;2023-06-19T03:57:29;14.52;;;10.70;;
80334;SDS011;69653;52.674;13.574;2023-06-19T03:59:55;13.73;;;10.55;;
80334;SDS011;69653;52.674;13.574;2023-06-19T04:02:21;14.07;;;11.02;;
80334;SDS011;69653;52.674;13.574;2023-06-19T04:04:46;12.80;;;10.23;;
80334;SDS011;69653;52.674;13.574;2023-06-19T04:07:12;15.47;;;11.80;;
80334;SDS011;69653;52.674;13.574;2023-06-19T04:09:38;16.63;;;11.48;;
80334;SDS011;69653;52.674;13.574;2023-06-19T04:12:03;14.13;;;10.67;;
80334;SDS011;69653;52.674;13.574;2023-06-19T04:14:29;14.00;;;11.82;;
80334;SDS011;69653;52.674;13.574;2023-06-19T04:16:54;15.33;;;11.63;;
80334;SDS011;69653;52.674;13.574;2023-06-19T04:19:20;14.57;;;11.33;;
80334;SDS011;69653;52.674;13.574;2023-06-19T04:21:45;14.02;;;11.13;;
80334;SDS011;69653;52.674;13.574;2023-06-19T04:24:10;16.23;;;12.60;;
80334;SDS011;69653;52.674;13.574;2023-06-19T04:26:36;15.10;;;11.03;;
80334;SDS011;69653;52.674;13.574;2023-06-19T04:29:04;16.40;;;11.75;;
80334;SDS011;69653;52.674;13.574;2023-06-19T04:31:31;15.13;;;12.07;;
80334;SDS011;69653;52.674;13.574;2023-06-19T04:33:57;15.77;;;11.20;;
80334;SDS011;69653;52.674;13.574;2023-06-19T04:36:22;14.20;;;11.73;;
80334;SDS011;69653;52.674;13.574;2023-06-19T04:38:48;15.63;;;12.07;;
80334;SDS011;69653;52.674;13.574;2023-06-19T04:41:16;16.63;;;12.63;;
80334;SDS011;69653;52.674;13.574;2023-06-19T04:43:41;15.48;;;11.57;;
80334;SDS011;69653;52.674;13.574;2023-06-19T04:46:07;13.80;;;11.03;;
80334;SDS011;69653;52.674;13.574;2023-06-19T04:48:32;16.27;;;12.30;;
80334;SDS011;69653;52.674;13.574;2023-06-19T04:51:00;16.90;;;12.13;;
80334;SDS011;69653;52.674;13.574;2023-06-19T04:53:26;14.57;;;11.15;;
80334;SDS011;69653;52.674;13.574;2023-06-19T04:55:51;13.50;;;11.27;;
80334;SDS011;69653;52.674;13.574;2023-06-19T04:58:19;14.60;;;11.55;;
80334;SDS011;69653;52.674;13.574;2023-06-19T05:00:46;13.90;;;11.32;;
80334;SDS011;69653;52.674;13.574;2023-06-19T05:03:16;14.75;;;11.25;;
80334;SDS011;69653;52.674;13.574;2023-06-19T05:05:41;15.13;;;12.05;;
80334;SDS011;69653;52.674;13.574;2023-06-19T05:08:07;14.35;;;11.50;;
80334;SDS011;69653;52.674;13.574;2023-06-19T05:10:32;15.68;;;12.80;;
80334;SDS011;69653;52.674;13.574;2023-06-19T05:12:58;15.40;;;12.98;;
80334;SDS011;69653;52.674;13.574;2023-06-19T05:15:23;14.73;;;11.80;;
80334;SDS011;69653;52.674;13.574;2023-06-19T05:17:49;14.63;;;11.17;;
80334;SDS011;69653;52.674;13.574;2023-06-19T05:20:14;16.50;;;10.93;;
80334;SDS011;69653;52.674;13.574;2023-06-19T05:22:40;15.85;;;12.43;;
80334;SDS011;69653;52.674;13.574;2023-06-19T05:25:06;16.20;;;12.60;;
80334;SDS011;69653;52.674;13.574;2023-06-19T05:27:32;16.40;;;12.55;;
80334;SDS011;69653;52.674;13.574;2023-06-19T05:29:58;15.27;;;11.73;;
80334;SDS011;69653;52.674;13.574;2023-06-19T05:32:23;15.63;;;13.20;;
80334;SDS011;69653;52.674;13.574;2023-06-19T05:34:48;18.63;;;11.70;;
80334;SDS011;69653;52.674;13.574;2023-06-19T05:37:16;14.27;;;11.70;;
80334;SDS011;69653;52.674;13.574;2023-06-19T05:39:41;19.52;;;12.40;;
80334;SDS011;69653;52.674;13.574;2023-06-19T05:42:07;15.53;;;12.00;;
80334;SDS011;69653;52.674;13.574;2023-06-19T05:44:32;15.18;;;12.35;;
80334;SDS011;69653;52.674;13.574;2023-06-19T05:46:57;17.57;;;13.07;;
80334;SDS011;69653;52.674;13.574;2023-06-19T05:49:23;15.50;;;12.10;;
80334;SDS011;69653;52.674;13.574;2023-06-19T05:51:48;15.27;;;12.27;;
80334;SDS011;69653;52.674;13.574;2023-06-19T05:54:13;15.70;;;12.40;;
80334;SDS011;69653;52.674;13.574;2023-06-19T05:56:39;14.97;;;11.30;;
80334;SDS011;69653;52.674;13.574;2023-06-19T05:59:04;14.50;;;11.73;;
80334;SDS011;69653;52.674;13.574;2023-06-19T06:01:30;15.27;;;12.30;;
80334;SDS011;69653;52.674;13.574;2023-06-19T06:03:55;14.83;;;11.37;;
80334;SDS011;69653;52.674;13.574;2023-06-19T06:06:24;17.13;;;12.52;;
80334;SDS011;69653;52.674;13.574;2023-06-19T06:08:50;15.95;;;12.02;;
80334;SDS011;69653;52.674;13.574;2023-06-19T06:11:20;15.80;;;11.80;;
80334;SDS011;69653;52.674;13.574;2023-06-19T06:13:45;15.50;;;12.15;;
80334;SDS011;69653;52.674;13.574;2023-06-19T06:16:10;16.23;;;13.30;;
80334;SDS011;69653;52.674;13.574;2023-06-19T06:18:36;14.93;;;11.73;;
80334;SDS011;69653;52.674;13.574;2023-06-19T06:21:01;14.67;;;11.80;;
80334;SDS011;69653;52.674;13.574;2023-06-19T06:23:27;17.35;;;12.35;;
80334;SDS011;69653;52.674;13.574;2023-06-19T06:25:52;14.02;;;11.25;;
80334;SDS011;69653;52.674;13.574;2023-06-19T06:28:17;15.18;;;12.20;;
80334;SDS011;69653;52.674;13.574;2023-06-19T06:30:43;15.53;;;11.47;;
80334;SDS011;69653;52.674;13.574;2023-06-19T06:33:09;15.50;;;12.35;;
80334;SDS011;69653;52.674;13.574;2023-06-19T06:35:34;16.42;;;12.50;;
80334;SDS011;69653;52.674;13.574;2023-06-19T06:38:01;14.25;;;11.35;;
80334;SDS011;69653;52.674;13.574;2023-06-19T06:40:26;14.75;;;11.73;;
80334;SDS011;69653;52.674;13.574;2023-06-19T06:42:52;14.93;;;11.02;;
80334;SDS011;69653;52.674;13.574;2023-06-19T06:45:18;14.60;;;11.63;;
80334;SDS011;69653;52.674;13.574;2023-06-19T06:47:44;15.02;;;10.93;;
80334;SDS011;69653;52.674;13.574;2023-06-19T06:50:09;14.00;;;10.97;;
80334;SDS011;69653;52.674;13.574;2023-06-19T06:52:35;14.15;;;11.35;;
80334;SDS011;69653;52.674;13.574;2023-06-19T06:55:00;15.27;;;11.23;;
80334;SDS011;69653;52.674;13.574;2023-06-19T06:57:25;14.90;;;11.73;;
80334;SDS011;69653;52.674;13.574;2023-06-19T06:59:51;12.80;;;10.73;;
80334;SDS011;69653;52.674;13.574;2023-06-19T07:02:16;14.43;;;10.73;;
80334;SDS011;69653;52.674;13.574;2023-06-19T07:04:41;12.97;;;10.87;;
80334;SDS011;69653;52.674;13.574;2023-06-19T07:07:07;13.10;;;10.83;;
80334;SDS011;69653;52.674;13.574;2023-06-19T07:09:33;13.90;;;10.43;;
80334;SDS011;69653;52.674;13.574;2023-06-19T07:11:59;13.38;;;10.20;;
80334;SDS011;69653;52.674;13.574;2023-06-19T07:14:24;13.10;;;10.80;;
80334;SDS011;69653;52.674;13.574;2023-06-19T07:16:49;12.33;;;10.00;;
80334;SDS011;69653;52.674;13.574;2023-06-19T07:19:15;13.85;;;10.48;;
80334;SDS011;69653;52.674;13.574;2023-06-19T07:21:41;12.55;;;9.75;;
80334;SDS011;69653;52.674;13.574;2023-06-19T07:24:07;12.98;;;10.10;;
80334;SDS011;69653;52.674;13.574;2023-06-19T07:26:32;12.65;;;9.70;;
80334;SDS011;69653;52.674;13.574;2023-06-19T07:28:57;14.50;;;10.40;;
80334;SDS011;69653;52.674;13.574;2023-06-19T07:31:23;15.47;;;10.23;;
80334;SDS011;69653;52.674;13.574;2023-06-19T07:33:48;13.38;;;10.90;;
80334;SDS011;69653;52.674;13.574;2023-06-19T07:36:14;15.82;;;10.75;;
80334;SDS011;69653;52.674;13.574;2023-06-19T07:38:41;12.77;;;10.00;;
80334;SDS011;69653;52.674;13.574;2023-06-19T07:41:08;13.48;;;10.32;;
80334;SDS011;69653;52.674;13.574;2023-06-19T07:43:34;13.38;;;11.35;;
80334;SDS011;69653;52.674;13.574;2023-06-19T07:46:00;14.23;;;10.98;;
80334;SDS011;69653;52.674;13.574;2023-06-19T07:48:26;12.77;;;9.30;;
80334;SDS011;69653;52.674;13.574;2023-06-19T07:50:52;11.27;;;9.38;;
80334;SDS011;69653;52.674;13.574;2023-06-19T07:53:18;13.43;;;10.80;;
80334;SDS011;69653;52.674;13.574;2023-06-19T07:55:43;12.70;;;9.90;;
80334;SDS011;69653;52.674;13.574;2023-06-19T07:58:09;12.13;;;9.63;;
80334;SDS011;69653;52.674;13.574;2023-06-19T08:00:34;13.23;;;10.17;;
80334;SDS011;69653;52.674;13.574;2023-06-19T08:03:00;11.88;;;9.82;;
80334;SDS011;69653;52.674;13.574;2023-06-19T08:05:26;12.50;;;10.73;;
80334;SDS011;69653;52.674;13.574;2023-06-19T08:07:52;12.15;;;9.80;;
80334;SDS011;69653;52.674;13.574;2023-06-19T08:10:18;12.82;;;10.63;;
80334;SDS011;69653;52.674;13.574;2023-06-19T08:12:43;12.83;;;9.80;;
80334;SDS011;69653;52.674;13.574;2023-06-19T08:15:09;14.85;;;10.52;;
80334;SDS011;69653;52.674;13.574;2023-06-19T08:17:36;12.90;;;10.10;;
80334;SDS011;69653;52.674;13.574;2023-06-19T08:20:01;14.85;;;11.13;;
80334;SDS011;69653;52.674;13.574;2023-06-19T08:22:30;13.43;;;9.90;;
80334;SDS011;69653;52.674;13.574;2023-06-19T08:24:55;15.77;;;10.88;;
80334;SDS011;69653;52.674;13.574;2023-06-19T08:27:21;13.10;;;9.90;;
80334;SDS011;69653;52.674;13.574;2023-06-19T08:29:46;14.48;;;9.48;;
80334;SDS011;69653;52.674;13.574;2023-06-19T08:32:12;16.77;;;10.27;;
80334;SDS011;69653;52.674;13.574;2023-06-19T08:34:37;13.68;;;9.98;;
80334;SDS011;69653;52.674;13.574;2023-06-19T08:37:03;12.90;;;9.88;;
80334;SDS011;69653;52.674;13.574;2023-06-19T08:39:29;13.18;;;9.35;;
80334;SDS011;69653;52.674;13.574;2023-06-19T08:41:54;15.50;;;10.13;;
80334;SDS011;69653;52.674;13.574;2023-06-19T08:44:20;12.95;;;10.10;;
80334;SDS011;69653;52.674;13.574;2023-06-19T08:46:45;12.57;;;9.60;;
80334;SDS011;69653;52.674;13.574;2023-06-19T08:49:10;12.60;;;10.00;;
80334;SDS011;69653;52.674;13.574;2023-06-19T08:51:36;13.67;;;10.70;;
80334;SDS011;69653;52.674;13.574;2023-06-19T08:54:02;12.60;;;10.02;;
80334;SDS011;69653;52.674;13.574;2023-06-19T08:56:30;13.27;;;10.55;;
80334;SDS011;69653;52.674;13.574;2023-06-19T08:59:08;12.73;;;10.73;;
80334;SDS011;69653;52.674;13.574;2023-06-19T09:01:35;12.82;;;10.32;;
80334;SDS011;69653;52.674;13.574;2023-06-19T09:04:07;14.15;;;10.38;;
80334;SDS011;69653;52.674;13.574;2023-06-19T09:06:33;13.65;;;11.05;;
80334;SDS011;69653;52.674;13.574;2023-06-19T09:08:59;13.10;;;10.40;;
80334;SDS011;69653;52.674;13.574;2023-06-19T09:11:25;12.98;;;9.95;;
80334;SDS011;69653;52.674;13.574;2023-06-19T09:13:56;14.63;;;10.47;;
80334;SDS011;69653;52.674;13.574;2023-06-19T09:16:23;12.68;;;10.25;;
80334;SDS011;69653;52.674;13.574;2023-06-19T09:18:49;12.80;;;10.35;;
80334;SDS011;69653;52.674;13.574;2023-06-19T09:21:21;12.80;;;10.07;;
80334;SDS011;69653;52.674;13.574;2023-06-19T09:23:50;14.40;;;10.85;;
80334;SDS011;69653;52.674;13.574;2023-06-19T09:26:16;13.30;;;10.63;;
80334;SDS011;69653;52.674;13.574;2023-06-19T09:28:44;13.02;;;10.20;;
80334;SDS011;69653;52.674;13.574;2023-06-19T09:31:09;14.73;;;10.48;;
80334;SDS011;69653;52.674;13.574;2023-06-19T09:33:35;12.23;;;9.82;;
80334;SDS011;69653;52.674;13.574;2023-06-19T09:36:03;14.50;;;10.70;;
80334;SDS011;69653;52.674;13.574;2023-06-19T09:38:30;13.80;;;10.23;;
80334;SDS011;69653;52.674;13.574;2023-06-19T09:41:04;13.27;;;10.55;;
80334;SDS011;69653;52.674;13.574;2023-06-19T09:43:53;13.80;;;10.80;;
80334;SDS011;69653;52.674;13.574;2023-06-19T09:46:19;14.07;;;11.30;;
80334;SDS011;69653;52.674;13.574;2023-06-19T09:48:45;13.88;;;10.82;;
80334;SDS011;69653;52.674;13.574;2023-06-19T09:51:18;14.52;;;12.27;;
80334;SDS011;69653;52.674;13.574;2023-06-19T09:53:45;14.40;;;10.82;;
80334;SDS011;69653;52.674;13.574;2023-06-19T09:56:12;15.10;;;11.30;;
80334;SDS011;69653;52.674;13.574;2023-06-19T09:58:38;11.85;;;9.93;;
80334;SDS011;69653;52.674;13.574;2023-06-19T10:01:04;14.27;;;10.57;;
80334;SDS011;69653;52.674;13.574;2023-06-19T10:03:32;12.63;;;10.27;;
80334;SDS011;69653;52.674;13.574;2023-06-19T10:06:02;12.95;;;10.55;;
80334;SDS011;69653;52.674;13.574;2023-06-19T10:08:38;12.05;;;9.73;;
80334;SDS011;69653;52.674;13.574;2023-06-19T10:11:05;14.02;;;10.23;;
80334;SDS011;69653;52.674;13.574;2023-06-19T10:13:34;12.88;;;10.40;;
80334;SDS011;69653;52.674;13.574;2023-06-19T10:16:03;12.45;;;10.23;;
80334;SDS011;69653;52.674;13.574;2023-06-19T10:18:30;12.77;;;9.70;;
80334;SDS011;69653;52.674;13.574;2023-06-19T10:20:57;13.73;;;9.80;;
80334;SDS011;69653;52.674;13.574;2023-06-19T10:23:23;11.93;;;9.40;;
80334;SDS011;69653;52.674;13.574;2023-06-19T10:28:21;12.52;;;9.50;;
80334;SDS011;69653;52.674;13.574;2023-06-19T10:31:06;14.48;;;9.48;;
80334;SDS011;69653;52.674;13.574;2023-06-19T10:33:36;11.50;;;9.70;;
80334;SDS011;69653;52.674;13.574;2023-06-19T10:36:17;12.32;;;9.95;;
80334;SDS011;69653;52.674;13.574;2023-06-19T10:38:47;11.82;;;9.77;;
80334;SDS011;69653;52.674;13.574;2023-06-19T10:41:21;11.75;;;9.98;;
80334;SDS011;69653;52.674;13.574;2023-06-19T10:43:55;14.55;;;10.60;;
80334;SDS011;69653;52.674;13.574;2023-06-19T10:46:22;13.25;;;9.70;;
80334;SDS011;69653;52.674;13.574;2023-06-19T10:48:49;14.15;;;9.18;;
80334;SDS011;69653;52.674;13.574;2023-06-19T10:51:19;13.95;;;10.02;;
80334;SDS011;69653;52.674;13.574;2023-06-19T10:53:44;11.32;;;9.55;;
80334;SDS011;69653;52.674;13.574;2023-06-19T10:56:09;11.90;;;9.67;;
80334;SDS011;69653;52.674;13.574;2023-06-19T10:58:35;12.47;;;10.23;;
80334;SDS011;69653;52.674;13.574;2023-06-19T11:01:00;12.77;;;9.37;;
80334;SDS011;69653;52.674;13.574;2023-06-19T11:03:25;12.07;;;9.50;;
80334;SDS011;69653;52.674;13.574;2023-06-19T11:05:51;16.17;;;11.88;;
80334;SDS011;69653;52.674;13.574;2023-06-19T11:08:18;12.13;;;10.10;;
80334;SDS011;69653;52.674;13.574;2023-06-19T11:10:44;13.68;;;9.85;;
80334;SDS011;69653;52.674;13.574;2023-06-19T11:13:13;14.55;;;9.75;;
80334;SDS011;69653;52.674;13.574;2023-06-19T11:15:40;12.30;;;10.25;;
80334;SDS011;69653;52.674;13.574;2023-06-19T11:18:05;11.45;;;8.90;;
80334;SDS011;69653;52.674;13.574;2023-06-19T11:20:30;11.90;;;9.20;;
80334;SDS011;69653;52.674;13.574;2023-06-19T11:22:57;12.48;;;9.95;;
80334;SDS011;69653;52.674;13.574;2023-06-19T11:25:34;13.32;;;9.25;;
80334;SDS011;69653;52.674;13.574;2023-06-19T11:28:00;11.70;;;10.02;;
80334;SDS011;69653;52.674;13.574;2023-06-19T11:30:32;11.63;;;9.47;;
80334;SDS011;69653;52.674;13.574;2023-06-19T11:32:59;11.57;;;9.88;;
80334;SDS011;69653;52.674;13.574;2023-06-19T11:35:24;12.10;;;10.10;;
80334;SDS011;69653;52.674;13.574;2023-06-19T11:37:50;11.90;;;9.38;;
80334;SDS011;69653;52.674;13.574;2023-06-19T11:40:16;11.70;;;9.38;;
80334;SDS011;69653;52.674;13.574;2023-06-19T11:42:45;11.15;;;9.57;;
80334;SDS011;69653;52.674;13.574;2023-06-19T11:45:11;13.30;;;10.15;;
80334;SDS011;69653;52.674;13.574;2023-06-19T11:47:36;12.83;;;10.37;;
80334;SDS011;69653;52.674;13.574;2023-06-19T11:50:03;11.50;;;9.15;;
80334;SDS011;69653;52.674;13.574;2023-06-19T11:52:30;11.55;;;9.48;;
80334;SDS011;69653;52.674;13.574;2023-06-19T11:54:55;11.68;;;9.80;;
80334;SDS011;69653;52.674;13.574;2023-06-19T11:57:20;11.80;;;9.57;;
80334;SDS011;69653;52.674;13.574;2023-06-19T11:59:46;12.60;;;10.37;;
80334;SDS011;69653;52.674;13.574;2023-06-19T12:02:12;12.43;;;10.43;;
80334;SDS011;69653;52.674;13.574;2023-06-19T12:04:37;11.07;;;9.50;;
80334;SDS011;69653;52.674;13.574;2023-06-19T12:07:02;11.10;;;9.30;;
80334;SDS011;69653;52.674;13.574;2023-06-19T12:09:29;14.32;;;10.23;;
80334;SDS011;69653;52.674;13.574;2023-06-19T12:11:54;12.23;;;9.65;;
80334;SDS011;69653;52.674;13.574;2023-06-19T12:14:20;10.57;;;9.13;;
80334;SDS011;69653;52.674;13.574;2023-06-19T12:16:46;11.07;;;9.83;;
80334;SDS011;69653;52.674;13.574;2023-06-19T12:19:11;12.20;;;9.90;;
80334;SDS011;69653;52.674;13.574;2023-06-19T12:21:37;11.93;;;9.50;;
80334;SDS011;69653;52.674;13.574;2023-06-19T12:24:02;10.90;;;9.73;;
80334;SDS011;69653;52.674;13.574;2023-06-19T12:26:28;11.15;;;9.45;;
80334;SDS011;69653;52.674;13.574;2023-06-19T12:28:53;11.13;;;8.87;;
80334;SDS011;69653;52.674;13.574;2023-06-19T12:31:18;11.83;;;9.10;;
80334;SDS011;69653;52.674;13.574;2023-06-19T12:33:44;11.60;;;9.83;;
80334;SDS011;69653;52.674;13.574;2023-06-19T12:36:13;12.20;;;9.05;;
80334;SDS011;69653;52.674;13.574;2023-06-19T12:41:05;11.20;;;8.57;;
80334;SDS011;69653;52.674;13.574;2023-06-19T12:43:30;11.18;;;9.45;;
80334;SDS011;69653;52.674;13.574;2023-06-19T12:45:57;10.77;;;8.73;;
80334;SDS011;69653;52.674;13.574;2023-06-19T12:48:24;10.00;;;8.55;;
80334;SDS011;69653;52.674;13.574;2023-06-19T12:50:52;10.70;;;8.75;;
80334;SDS011;69653;52.674;13.574;2023-06-19T12:53:17;10.87;;;9.27;;
80334;SDS011;69653;52.674;13.574;2023-06-19T12:55:43;11.32;;;8.93;;
80334;SDS011;69653;52.674;13.574;2023-06-19T12:58:09;10.87;;;8.63;;
80334;SDS011;69653;52.674;13.574;2023-06-19T13:00:34;10.85;;;9.18;;
80334;SDS011;69653;52.674;13.574;2023-06-19T13:03:00;11.80;;;10.57;;
80334;SDS011;69653;52.674;13.574;2023-06-19T13:05:25;11.38;;;9.23;;
80334;SDS011;69653;52.674;13.574;2023-06-19T13:07:50;12.67;;;9.90;;
80334;SDS011;69653;52.674;13.574;2023-06-19T13:10:16;11.33;;;9.93;;
80334;SDS011;69653;52.674;13.574;2023-06-19T13:12:41;12.37;;;11.03;;
80334;SDS011;69653;52.674;13.574;2023-06-19T13:15:06;11.13;;;9.60;;
80334;SDS011;69653;52.674;13.574;2023-06-19T13:17:32;10.73;;;9.18;;
80334;SDS011;69653;52.674;13.574;2023-06-19T13:19:57;11.30;;;10.10;;
80334;SDS011;69653;52.674;13.574;2023-06-19T13:22:24;12.18;;;10.32;;
80334;SDS011;69653;52.674;13.574;2023-06-19T13:24:50;14.77;;;9.93;;
80334;SDS011;69653;52.674;13.574;2023-06-19T13:27:15;13.90;;;9.82;;
80334;SDS011;69653;52.674;13.574;2023-06-19T13:29:41;10.37;;;9.27;;
80334;SDS011;69653;52.674;13.574;2023-06-19T13:32:06;11.00;;;8.83;;
80334;SDS011;69653;52.674;13.574;2023-06-19T13:34:31;11.07;;;9.25;;
80334;SDS011;69653;52.674;13.574;2023-06-19T13:36:57;12.53;;;9.90;;
80334;SDS011;69653;52.674;13.574;2023-06-19T13:39:22;13.27;;;9.80;;
80334;SDS011;69653;52.674;13.574;2023-06-19T13:41:47;12.00;;;9.90;;
80334;SDS011;69653;52.674;13.574;2023-06-19T13:44:13;12.60;;;9.93;;
80334;SDS011;69653;52.674;13.574;2023-06-19T13:46:38;11.88;;;9.98;;
80334;SDS011;69653;52.674;13.574;2023-06-19T13:49:04;12.10;;;10.10;;
80334;SDS011;69653;52.674;13.574;2023-06-19T13:51:30;11.38;;;9.55;;
80334;SDS011;69653;52.674;13.574;2023-06-19T13:53:55;13.40;;;10.10;;
80334;SDS011;69653;52.674;13.574;2023-06-19T13:56:20;14.48;;;9.93;;
80334;SDS011;69653;52.674;13.574;2023-06-19T13:58:48;13.20;;;9.57;;
80334;SDS011;69653;52.674;13.574;2023-06-19T14:01:13;11.77;;;9.47;;
80334;SDS011;69653;52.674;13.574;2023-06-19T14:03:38;11.67;;;9.37;;
80334;SDS011;69653;52.674;13.574;2023-06-19T14:06:07;12.68;;;8.52;;
80334;SDS011;69653;52.674;13.574;2023-06-19T14:08:32;10.45;;;8.63;;
80334;SDS011;69653;52.674;13.574;2023-06-19T14:10:58;12.45;;;8.82;;
80334;SDS011;69653;52.674;13.574;2023-06-19T14:13:24;12.02;;;8.45;;